Time;durP1;ratioP1;P1;durP2;ratioP2;P2;SDS_P1;SDS_P2;PMS_P1;PMS_P2;Temp;Humidity;BMP_temperature;BMP_pressure;BME280_temperature;BME280_humidity;BME280_pressure;Samples;Min_cycle;Max_cycle;Signal;HPM_P1;HPM_P2
2023/09/06 00:02:29;;;;;;;4.55;3.63;;;;;;;-145.68;60.41;73685.69;10447699;28;20228;-70
2023/09/06 00:07:29;;;;;;;4.72;3.33;;;;;;;-145.68;60.61;73703.69;10448187;28;20224;-69
2023/09/06 00:12:29;;;;;;;4.38;3.45;;;;;;;-145.68;61.28;73721.66;10447724;28;20227;-69
2023/09/06 00:17:30;;;;;;;4.93;3.15;;;;;;;-145.68;62.20;73753.66;10454315;28;20184;-70
2023/09/06 00:22:30;;;;;;;3.90;3.50;;;;;;;-145.68;62.15;73753.66;10455016;28;20558;-70
2023/09/06 00:27:31;;;;;;;6.40;3.70;;;;;;;-145.68;62.11;73743.66;10455078;28;20582;-69
2023/09/06 00:32:31;;;;;;;5.05;3.65;;;;;;;-145.68;61.61;73729.66;10454840;28;20718;-70
2023/09/06 00:37:40;;;;;;;8.15;4.22;;;;;;;-145.68;61.94;73743.66;10453268;28;20305;-69
2023/09/06 00:42:40;;;;;;;6.78;4.10;;;;;;;-145.68;62.00;73735.66;10454470;28;20674;-70
2023/09/06 00:47:42;;;;;;;6.30;3.50;;;;;;;-145.68;61.88;73719.66;10454188;28;20220;-69
2023/09/06 00:52:43;;;;;;;7.10;3.20;;;;;;;-145.68;60.44;73689.69;10436250;28;20219;-70
2023/09/06 00:57:43;;;;;;;5.72;3.40;;;;;;;-145.68;60.02;73683.69;10469468;28;20184;-69
2023/09/06 01:02:45;;;;;;;3.70;3.08;;;;;;;-145.68;59.69;73673.69;10452979;28;20235;-69
2023/09/06 01:07:47;;;;;;;6.07;3.72;;;;;;;-145.68;59.34;73663.69;10453567;28;20600;-70
2023/09/06 01:12:48;;;;;;;7.80;3.50;;;;;;;-145.68;59.11;73671.69;10415301;28;20215;-70
2023/09/06 01:17:49;;;;;;;9.25;3.78;;;;;;;-145.68;58.30;73643.72;10414811;28;20672;-70
2023/09/06 01:22:56;;;;;;;4.13;3.67;;;;;;;-145.68;59.39;73697.69;10413131;28;20220;-70
2023/09/06 01:27:56;;;;;;;4.53;3.53;;;;;;;-145.68;59.59;73695.69;10429789;28;20709;-70
2023/09/06 01:32:57;;;;;;;4.53;3.60;;;;;;;-145.68;59.72;73711.66;10451335;28;20219;-70
2023/09/06 01:37:57;;;;;;;4.50;3.78;;;;;;;-145.68;60.06;73727.66;10452176;28;20553;-70
2023/09/06 01:42:58;;;;;;;4.65;3.20;;;;;;;-145.68;59.34;73719.66;10452062;28;20334;-70
2023/09/06 01:47:59;;;;;;;4.55;3.55;;;;;;;-145.68;59.95;73739.66;10451970;28;20220;-70
2023/09/06 01:52:59;;;;;;;6.38;3.35;;;;;;;-145.68;60.91;73773.63;10451649;28;20208;-70
2023/09/06 01:57:59;;;;;;;5.10;3.80;;;;;;;-145.68;61.68;73795.63;10451822;28;20608;-70
2023/09/06 02:03:00;;;;;;;3.85;3.30;;;;;;;-145.68;62.61;73831.59;10449866;28;20231;-69
2023/09/06 02:08:01;;;;;;;5.30;3.75;;;;;;;-145.68;63.36;73851.59;10451348;28;20219;-70
2023/09/06 02:13:01;;;;;;;5.65;3.72;;;;;;;-145.68;63.90;73857.59;10449456;28;20216;-69
2023/09/06 02:18:01;;;;;;;7.90;3.80;;;;;;;-145.68;65.40;73893.56;10450805;28;20184;-70
2023/09/06 02:23:02;;;;;;;5.78;3.67;;;;;;;-145.68;67.56;73951.53;10450502;28;20263;-69
2023/09/06 02:28:06;;;;;;;4.55;3.97;;;;;;;-145.68;68.33;73951.53;10450347;28;20701;-69
2023/09/06 02:33:14;;;;;;;4.40;4.00;;;;;;;-145.68;69.06;73965.53;10448941;28;20216;-69
2023/09/06 02:38:14;;;;;;;6.05;4.50;;;;;;;-145.68;68.84;73963.53;10448767;28;20184;-69
2023/09/06 02:43:16;;;;;;;7.30;4.40;;;;;;;-145.68;70.51;74001.53;10448427;28;20223;-69
2023/09/06 02:48:18;;;;;;;7.10;4.28;;;;;;;-145.68;70.95;73995.53;10449685;28;20207;-69
2023/09/06 02:53:22;;;;;;;5.50;3.80;;;;;;;-145.68;71.31;74015.50;10449410;28;20235;-69
2023/09/06 02:58:25;;;;;;;6.28;4.47;;;;;;;-145.68;72.10;74025.50;10448098;28;20218;-69
2023/09/06 03:03:30;;;;;;;8.73;4.10;;;;;;;-145.68;72.30;74035.50;10464883;22;20722;-66
2023/09/06 03:08:31;;;;;;;11.18;4.40;;;;;;;-145.68;72.95;74047.50;10429378;28;20205;-64
2023/09/06 03:13:32;;;;;;;6.32;4.18;;;;;;;-145.68;73.65;74065.50;10409763;28;20208;-65
2023/09/06 03:18:32;;;;;;;8.80;4.63;;;;;;;-145.68;75.70;74109.47;10411301;28;20184;-65
2023/09/06 03:23:33;;;;;;;6.90;4.45;;;;;;;-145.68;76.58;74109.47;10434315;28;20207;-64
2023/09/06 03:28:40;;;;;;;6.47;4.32;;;;;;;-145.68;76.94;74115.47;10409768;28;20219;-64
2023/09/06 03:33:41;;;;;;;5.15;3.83;;;;;;;-145.68;77.58;74115.47;10405426;28;20207;-65
2023/09/06 03:38:41;;;;;;;5.20;4.15;;;;;;;-145.68;78.48;74141.47;10409373;28;20177;-65
2023/09/06 03:43:42;;;;;;;5.32;4.10;;;;;;;-145.68;81.41;74161.44;10413195;28;20349;-65
2023/09/06 03:48:43;;;;;;;7.50;4.07;;;;;;;-145.68;81.77;74153.47;10448127;28;20218;-64
2023/09/06 03:53:46;;;;;;;8.23;4.85;;;;;;;-145.68;83.76;74183.44;10455868;28;20286;-65
2023/09/06 03:58:47;;;;;;;6.63;4.50;;;;;;;-145.68;84.07;74175.44;10454261;28;20615;-65
2023/09/06 04:03:50;;;;;;;6.28;4.35;;;;;;;-145.68;84.07;74167.44;10453542;28;20238;-65
2023/09/06 04:08:53;;;;;;;7.80;4.45;;;;;;;-145.68;84.27;74183.44;10454003;28;20713;-65
2023/09/06 04:13:55;;;;;;;5.28;4.10;;;;;;;-145.68;85.88;74203.44;10453254;28;20208;-65
2023/09/06 04:18:57;;;;;;;4.25;3.70;;;;;;;-145.68;85.26;74195.44;10453724;28;20650;-65
2023/09/06 04:23:59;;;;;;;9.40;4.65;;;;;;;-145.68;85.50;74195.44;10453150;28;20223;-64
2023/09/06 04:29:02;;;;;;;7.72;4.35;;;;;;;-145.68;85.65;74207.44;10452986;28;20219;-64
2023/09/06 04:34:04;;;;;;;7.15;4.43;;;;;;;-145.68;87.14;74229.41;10443327;28;20744;-65
2023/09/06 04:39:07;;;;;;;7.15;4.20;;;;;;;-145.68;88.09;74239.41;10417007;28;20188;-65
2023/09/06 04:44:10;;;;;;;7.00;4.22;;;;;;;-145.68;87.96;74235.41;10437105;28;20205;-65
2023/09/06 04:49:11;;;;;;;7.13;4.18;;;;;;;-145.68;88.55;74227.41;10410507;28;20243;-65
2023/09/06 04:54:12;;;;;;;4.63;4.05;;;;;;;-145.68;87.42;74225.41;10414778;28;20677;-65
2023/09/06 04:59:13;;;;;;;8.52;3.78;;;;;;;-145.68;86.90;74217.44;10415996;28;20180;-64
2023/09/06 05:04:14;;;;;;;6.05;4.13;;;;;;;-145.68;87.02;74223.44;10452692;28;20246;-64
2023/09/06 05:09:17;;;;;;;5.10;4.32;;;;;;;-145.68;87.03;74213.44;10451686;28;20207;-65
2023/09/06 05:14:19;;;;;;;8.00;4.78;;;;;;;-145.68;85.99;74209.44;10451257;28;20569;-64
2023/09/06 05:19:21;;;;;;;6.70;4.47;;;;;;;-145.68;86.28;74211.44;10451065;28;20211;-64
2023/09/06 05:24:22;;;;;;;6.50;4.20;;;;;;;-145.68;86.42;74201.44;10450886;28;20280;-65
2023/09/06 05:29:22;;;;;;;5.75;4.15;;;;;;;-145.68;85.21;74151.47;10450743;28;20585;-65
2023/09/06 05:34:23;;;;;;;8.13;4.13;;;;;;;-145.68;79.92;74053.50;10450450;28;20200;-64
2023/09/06 05:39:23;;;;;;;4.53;3.83;;;;;;;-145.68;74.41;73947.56;10450617;28;20224;-65
2023/09/06 05:44:24;;;;;;;4.53;3.55;;;;;;;-145.68;70.94;73899.56;10450335;28;20309;-66
2023/09/06 05:49:25;;;;;;;4.82;4.13;;;;;;;-145.68;69.51;73921.56;10449949;28;20666;-65
2023/09/06 05:54:25;;;;;;;4.63;3.78;;;;;;;-145.68;68.96;73829.59;10449576;28;20222;-66
2023/09/06 05:59:26;;;;;;;3.97;3.33;;;;;;;-145.68;69.55;73843.59;10429031;28;20223;-66
2023/09/06 06:04:27;;;;;;;6.22;3.75;;;;;;;-145.68;66.06;73807.63;10410860;28;20224;-65
2023/09/06 06:09:27;;;;;;;5.53;3.33;;;;;;;-145.68;64.53;73721.66;10412642;28;20181;-65
2023/09/06 06:14:28;;;;;;;8.00;3.60;;;;;;;-145.68;63.19;73671.69;10412232;28;20269;-66
2023/09/06 06:19:28;;;;;;;8.07;4.20;;;;;;;-145.68;62.68;73645.72;10430098;28;20285;-66
2023/09/06 06:24:29;;;;;;;6.25;3.60;;;;;;;-145.68;60.70;73577.75;10412814;28;20223;-66
2023/09/06 06:29:30;;;;;;;6.32;3.65;;;;;;;-145.68;59.02;73511.78;10412305;28;20200;-66
2023/09/06 06:34:30;;;;;;;7.82;3.55;;;;;;;-145.68;58.95;73463.81;10414889;28;20593;-66
2023/09/06 06:39:31;;;;;;;7.60;3.53;;;;;;;-145.68;57.78;73467.81;10449072;28;20302;-64
2023/09/06 06:44:31;;;;;;;4.07;3.25;;;;;;;-145.68;57.10;73409.84;10449234;28;20241;-65
2023/09/06 06:49:31;;;;;;;7.75;3.30;;;;;;;-145.68;57.63;73435.84;10449145;28;20184;-65
2023/09/06 06:54:32;;;;;;;4.68;3.20;;;;;;;-145.68;55.51;73329.91;10423997;28;20227;-63
2023/09/06 06:59:34;;;;;;;6.43;2.95;;;;;;;-145.68;53.11;73241.97;10447572;28;20208;-65
2023/09/06 07:04:35;;;;;;;5.57;3.05;;;;;;;-145.68;52.05;73225.97;10446716;28;20443;-65
2023/09/06 07:09:36;;;;;;;4.22;2.72;;;;;;;-145.68;49.35;73116.03;10430152;28;20199;-64
2023/09/06 07:14:36;;;;;;;4.55;3.00;;;;;;;-145.68;46.99;72960.16;10427170;28;20368;-65
2023/09/06 07:19:36;;;;;;;3.75;2.72;;;;;;;-145.68;45.31;72924.19;10443105;28;20219;-64
2023/09/06 07:24:37;;;;;;;5.45;3.03;;;;;;;-145.68;46.57;72976.16;10452018;28;20353;-65
2023/09/06 07:29:37;;;;;;;7.18;2.78;;;;;;;-145.68;44.69;72898.19;10422544;28;20195;-64
2023/09/06 07:34:37;;;;;;;4.25;2.90;;;;;;;-145.68;44.12;72880.22;10443274;28;20582;-66
2023/09/06 07:39:38;;;;;;;6.05;3.30;;;;;;;-145.68;42.98;72788.28;10453938;28;20632;-65
2023/09/06 07:44:38;;;;;;;5.47;3.22;;;;;;;-145.68;42.23;72812.28;10446416;28;20239;-65
2023/09/06 07:49:38;;;;;;;3.05;2.70;;;;;;;-145.68;41.56;72778.28;10416096;28;20185;-66
2023/09/06 07:54:40;;;;;;;5.03;2.88;;;;;;;-145.68;39.94;72718.34;10446233;28;20620;-66
2023/09/06 07:59:41;;;;;;;5.20;2.80;;;;;;;-145.68;38.65;72652.41;10450640;28;20204;-66
2023/09/06 08:04:41;;;;;;;3.78;2.58;;;;;;;-145.68;38.72;72602.44;10421334;28;20231;-66
2023/09/06 08:09:41;;;;;;;5.78;2.33;;;;;;;-145.68;37.72;72554.47;10420267;28;20258;-66
2023/09/06 08:14:42;;;;;;;5.57;2.85;;;;;;;-145.68;37.76;72690.38;10452893;28;20342;-66
2023/09/06 08:19:42;;;;;;;3.95;2.95;;;;;;;-145.68;39.36;72808.28;10445033;28;20216;-67
2023/09/06 08:24:42;;;;;;;4.15;2.53;;;;;;;-145.68;38.94;72764.31;10413070;28;21133;-66
2023/09/06 08:29:43;;;;;;;4.25;3.13;;;;;;;-145.68;39.15;72796.28;10415487;28;20196;-66
2023/09/06 08:34:43;;;;;;;3.80;2.38;;;;;;;-145.68;39.32;72828.25;10413718;28;20251;-66
2023/09/06 08:39:44;;;;;;;3.83;2.65;;;;;;;-145.68;39.25;72836.25;10413981;28;20273;-67
2023/09/06 08:44:48;;;;;;;3.80;2.50;;;;;;;-145.68;39.08;72828.25;10413941;28;20220;-66
2023/09/06 08:49:49;;;;;;;4.70;2.85;;;;;;;-145.68;38.19;72712.34;10434285;28;20204;-66
2023/09/06 08:54:50;;;;;;;4.82;2.88;;;;;;;-145.68;37.66;72664.38;10433341;28;20212;-66
2023/09/06 08:59:50;;;;;;;2.88;2.40;;;;;;;-145.68;37.56;72678.38;10413340;28;20238;-67
2023/09/06 09:04:51;;;;;;;4.57;2.83;;;;;;;-145.68;38.73;72762.31;10430539;22;20232;-70
2023/09/06 09:09:59;;;;;;;4.55;2.58;;;;;;;-145.68;37.83;72704.34;10413140;28;20192;-70
2023/09/06 09:15:00;;;;;;;6.45;2.55;;;;;;;-145.68;36.69;72608.44;10413391;28;20212;-69
2023/09/06 09:20:00;;;;;;;3.05;2.72;;;;;;;-145.68;35.21;72426.59;10413890;28;20207;-68
2023/09/06 09:25:04;;;;;;;2.70;2.40;;;;;;;-145.68;33.93;72302.69;10446020;28;20273;-70
2023/09/06 09:30:06;;;;;;;4.47;2.80;;;;;;;-145.68;35.41;72554.47;10445875;28;20605;-68
2023/09/06 09:35:11;;;;;;;4.88;2.60;;;;;;;-145.68;36.78;72646.41;10448816;28;20207;-68
2023/09/06 09:40:32;;;;;;;3.38;2.55;;;;;;;-145.68;33.87;72380.63;10433493;28;20212;-70
2023/09/06 09:45:43;;;;;;;3.47;2.35;;;;;;;-145.68;33.48;72322.69;10421394;28;20748;-68
2023/09/06 09:50:46;;;;;;;3.35;2.42;;;;;;;-145.68;33.08;72296.69;10410690;28;20208;-69
2023/09/06 09:55:47;;;;;;;3.90;2.58;;;;;;;-145.68;33.41;72340.66;10412173;28;20205;-71
2023/09/06 10:00:50;;;;;;;4.53;2.53;;;;;;;-145.68;34.80;72520.50;10423418;28;20208;-69
2023/09/06 10:05:51;;;;;;;2.55;2.35;;;;;;;-145.68;33.71;72404.59;10447352;28;20582;-69
2023/09/06 10:10:51;;;;;;;3.17;2.65;;;;;;;-145.68;33.10;72320.69;10447932;28;20180;-69
2023/09/06 10:15:52;;;;;;;2.60;2.38;;;;;;;-145.68;31.88;72128.84;10448673;28;20216;-68
2023/09/06 10:20:53;;;;;;;3.45;2.55;;;;;;;-145.68;32.42;72074.91;10446994;28;20588;-70
2023/09/06 10:25:54;;;;;;;7.72;2.33;;;;;;;-145.68;31.99;72158.84;10438090;28;20968;-69
2023/09/06 10:31:07;;;;;;;3.53;2.42;;;;;;;-145.68;32.31;72292.72;10410910;28;20196;-68
2023/09/06 10:36:15;;;;;;;5.45;2.20;;;;;;;-145.68;32.08;72248.75;10423187;28;20589;-69
2023/09/06 10:41:17;;;;;;;2.92;2.28;;;;;;;-145.68;31.04;72088.91;10444479;28;20200;-68
2023/09/06 10:46:27;;;;;;;2.78;2.25;;;;;;;-145.68;30.76;71885.09;10447909;28;20184;-69
2023/09/06 10:51:27;;;;;;;8.35;2.60;;;;;;;-145.68;30.49;71863.13;10447611;28;20287;-69
2023/09/06 10:56:28;;;;;;;3.83;2.33;;;;;;;-145.68;29.02;71729.25;10447122;28;20353;-68
2023/09/06 11:01:29;;;;;;;2.83;2.47;;;;;;;-145.68;31.72;72032.94;10443141;28;20197;-69
2023/09/06 11:06:49;;;;;;;4.18;2.65;;;;;;;-145.68;30.34;72028.94;10405943;28;20277;-69
2023/09/06 11:11:51;;;;;;;5.80;2.42;;;;;;;-145.68;33.24;72186.81;10407775;28;20223;-70
2023/09/06 11:16:52;;;;;;;2.72;2.20;;;;;;;-145.68;32.26;72242.75;10423481;28;20291;-70
2023/09/06 11:22:05;;;;;;;3.95;2.55;;;;;;;-145.68;32.67;72278.72;10441009;28;20212;-70
2023/09/06 11:27:24;;;;;;;4.30;2.25;;;;;;;-145.68;31.82;71951.03;10408283;28;21016;-69
2023/09/06 11:32:26;;;;;;;6.65;2.40;;;;;;;-145.68;29.58;71869.13;10395432;28;20699;-68
2023/09/06 11:37:28;;;;;;;2.67;2.25;;;;;;;-145.68;32.11;72162.81;10430571;28;20245;-68
2023/09/06 11:42:31;;;;;;;2.65;2.10;;;;;;;-145.68;31.35;72084.91;10430412;28;20215;-69
2023/09/06 11:47:32;;;;;;;6.13;2.38;;;;;;;-145.68;31.59;72112.88;10407542;28;20232;-69
2023/09/06 11:52:33;;;;;;;4.28;2.28;;;;;;;-145.68;30.24;71975.00;10408124;28;20218;-69
2023/09/06 11:57:37;;;;;;;2.60;2.40;;;;;;;-145.68;30.06;71835.16;10444785;28;20195;-69
2023/09/06 12:02:37;;;;;;;3.75;2.33;;;;;;;-145.68;29.64;71687.31;10444557;28;20313;-68
2023/09/06 12:07:38;;;;;;;2.63;2.07;;;;;;;-145.68;27.80;71445.56;10443688;28;20766;-69
2023/09/06 12:12:42;;;;;;;2.92;2.00;;;;;;;-145.68;28.50;71757.22;10420721;28;20465;-68
2023/09/06 12:17:49;;;;;;;2.40;2.20;;;;;;;-145.68;28.84;71799.19;10452802;28;20168;-69
2023/09/06 12:22:51;;;;;;;3.30;2.15;;;;;;;-145.68;28.76;71651.34;10451989;28;20710;-68
2023/09/06 12:27:51;;;;;;;3.67;2.20;;;;;;;-145.68;28.70;71781.19;10450736;28;20227;-69
2023/09/06 12:32:52;;;;;;;2.72;2.13;;;;;;;-145.68;27.90;71535.47;10452641;28;20212;-69
2023/09/06 12:37:52;;;;;;;2.78;2.20;;;;;;;-145.68;28.88;71573.41;10452167;28;20194;-69
2023/09/06 12:42:53;;;;;;;4.68;2.35;;;;;;;-145.68;30.67;72024.97;10446332;28;20261;-68
2023/09/06 12:47:54;;;;;;;2.67;2.10;;;;;;;-145.68;29.95;71757.22;10451909;28;20255;-69
2023/09/06 12:52:55;;;;;;;3.35;2.33;;;;;;;-145.68;27.98;71573.41;10451118;28;20999;-68
2023/09/06 12:57:58;;;;;;;2.83;2.10;;;;;;;-145.68;27.71;71341.69;10425587;28;20204;-69
2023/09/06 13:03:01;;;;;;;2.17;1.98;;;;;;;-145.68;27.02;71329.69;10413431;28;20305;-69
2023/09/06 13:08:02;;;;;;;2.63;2.40;;;;;;;-145.68;26.80;71281.75;10413040;28;20220;-69
2023/09/06 13:13:02;;;;;;;2.72;2.10;;;;;;;-145.68;25.83;71115.94;10441118;28;20234;-70
2023/09/06 13:18:03;;;;;;;5.03;2.50;;;;;;;-145.68;25.69;71243.78;10446488;28;20214;-70
2023/09/06 13:23:04;;;;;;;3.33;2.88;;;;;;;-145.68;25.67;71321.69;10442358;28;20619;-69
2023/09/06 13:28:04;;;;;;;2.72;2.50;;;;;;;-145.68;26.03;71289.75;10449435;28;20222;-69
2023/09/06 13:33:05;;;;;;;5.10;3.00;;;;;;;-145.68;25.74;71327.69;10447313;28;20230;-70
2023/09/06 13:38:06;;;;;;;3.30;2.87;;;;;;;-145.68;25.41;71327.69;10449986;28;20184;-68
2023/09/06 13:43:06;;;;;;;3.03;2.60;;;;;;;-145.68;24.79;71301.72;10449327;28;20458;-68
2023/09/06 13:48:06;;;;;;;5.23;3.03;;;;;;;-145.68;26.00;71363.66;10449213;28;20219;-69
2023/09/06 13:53:07;;;;;;;5.23;2.60;;;;;;;-145.68;25.95;71417.59;10424921;28;20459;-69
2023/09/06 13:58:08;;;;;;;4.30;2.60;;;;;;;-145.68;26.24;71525.47;10408633;28;20430;-69
2023/09/06 14:03:09;;;;;;;3.13;2.83;;;;;;;-145.68;25.33;71485.53;10415601;28;20477;-67
2023/09/06 14:08:09;;;;;;;3.67;2.75;;;;;;;-145.68;26.20;71533.47;10408051;28;20208;-69
2023/09/06 14:13:10;;;;;;;3.07;2.67;;;;;;;-145.68;26.43;71737.25;10447947;28;20215;-69
2023/09/06 14:18:10;;;;;;;3.53;2.67;;;;;;;-145.68;26.40;71517.47;10448072;28;20517;-67
2023/09/06 14:23:11;;;;;;;3.05;2.70;;;;;;;-145.68;27.16;71595.41;10446632;28;20462;-69
2023/09/06 14:28:11;;;;;;;3.53;2.67;;;;;;;-145.68;25.36;71375.66;10431345;28;20276;-69
2023/09/06 14:33:15;;;;;;;4.85;2.75;;;;;;;-145.68;26.52;71633.34;10445897;28;20215;-70
2023/09/06 14:38:16;;;;;;;4.18;2.30;;;;;;;-145.68;26.25;71545.44;10405378;28;20177;-69
2023/09/06 14:43:18;;;;;;;3.45;2.78;;;;;;;-145.68;26.59;71619.38;10409517;28;20576;-68
2023/09/06 14:48:19;;;;;;;2.97;2.50;;;;;;;-145.68;25.94;71429.59;10441474;28;20231;-69
2023/09/06 14:53:19;;;;;;;6.22;2.53;;;;;;;-145.68;25.95;71405.59;10424431;28;20582;-69
2023/09/06 14:58:20;;;;;;;3.83;2.47;;;;;;;-145.68;27.54;71933.03;10424893;28;20183;-70
2023/09/06 15:03:22;;;;;;;2.95;1.98;;;;;;;-145.68;29.13;71965.00;10473175;22;21022;-64
2023/09/06 15:08:23;;;;;;;6.25;2.20;;;;;;;-145.68;27.10;71585.41;10483635;28;20207;-64
2023/09/06 15:13:24;;;;;;;2.90;2.10;;;;;;;-145.68;25.38;71383.63;10487621;28;20741;-65
2023/09/06 15:18:24;;;;;;;4.63;2.40;;;;;;;-145.68;25.80;71349.66;10487352;28;20832;-65
2023/09/06 15:23:25;;;;;;;2.63;2.40;;;;;;;-145.68;26.90;71719.25;10485816;28;20211;-65
2023/09/06 15:28:26;;;;;;;3.78;2.50;;;;;;;-145.68;27.11;71445.56;10482643;28;20226;-64
2023/09/06 15:33:26;;;;;;;4.00;2.10;;;;;;;-145.68;26.24;71529.47;10453067;28;20343;-64
2023/09/06 15:38:26;;;;;;;3.53;2.47;;;;;;;-145.68;26.77;71509.50;10448141;28;20936;-65
2023/09/06 15:43:27;;;;;;;5.20;2.53;;;;;;;-145.68;28.34;71751.22;10450470;28;20512;-64
2023/09/06 15:48:27;;;;;;;2.80;2.45;;;;;;;-145.68;28.79;71831.16;10454963;28;20476;-64
2023/09/06 15:53:28;;;;;;;3.70;2.60;;;;;;;-145.68;28.14;71659.34;10455147;28;20208;-65
2023/09/06 15:58:28;;;;;;;3.08;2.65;;;;;;;-145.68;28.43;71717.28;10457244;28;20446;-64
2023/09/06 16:03:28;;;;;;;3.53;2.78;;;;;;;-145.68;30.79;71955.03;10460012;28;20228;-65
2023/09/06 16:08:29;;;;;;;3.53;2.53;;;;;;;-145.68;30.57;71947.03;10455377;28;20215;-64
2023/09/06 16:13:29;;;;;;;3.20;2.50;;;;;;;-145.68;29.30;71691.28;10454962;28;20475;-65
2023/09/06 16:18:30;;;;;;;5.57;2.80;;;;;;;-145.68;28.88;71585.41;10455089;28;20438;-65
2023/09/06 16:23:31;;;;;;;3.40;2.70;;;;;;;-145.68;28.70;71725.25;10454208;28;21030;-65
2023/09/06 16:28:32;;;;;;;4.97;2.80;;;;;;;-145.68;27.99;71495.50;10453057;28;20230;-65
2023/09/06 16:33:34;;;;;;;4.00;3.15;;;;;;;-145.68;29.22;71555.44;10451653;28;20215;-65
2023/09/06 16:38:35;;;;;;;3.95;3.20;;;;;;;-145.68;30.98;71929.06;10477814;28;20252;-64
2023/09/06 16:43:37;;;;;;;5.63;3.50;;;;;;;-145.68;33.81;72212.78;10452200;28;20277;-65
2023/09/06 16:48:37;;;;;;;3.97;3.00;;;;;;;-145.68;33.89;72232.75;10452173;28;20703;-65
2023/09/06 16:53:37;;;;;;;4.23;3.37;;;;;;;-145.68;34.61;72250.75;10451704;28;20320;-65
2023/09/06 16:58:40;;;;;;;3.33;2.85;;;;;;;-145.68;37.13;72458.56;10455806;28;20426;-65
2023/09/06 17:03:40;;;;;;;3.80;3.35;;;;;;;-145.68;38.68;72602.44;10456244;28;20777;-65
2023/09/06 17:08:41;;;;;;;4.85;3.13;;;;;;;-145.68;41.81;72776.28;10450699;28;20216;-65
2023/09/06 17:13:42;;;;;;;4.90;3.47;;;;;;;-145.68;46.28;73010.13;10446799;28;20628;-66
2023/09/06 17:18:44;;;;;;;6.15;3.40;;;;;;;-145.68;48.22;73102.06;10464625;28;20220;-66
2023/09/06 17:23:45;;;;;;;4.38;3.75;;;;;;;-145.68;50.38;73140.03;10450678;28;20298;-66
2023/09/06 17:28:47;;;;;;;5.60;3.30;;;;;;;-145.68;51.17;73180.00;10451559;28;20247;-66
2023/09/06 17:33:48;;;;;;;5.38;4.03;;;;;;;-145.68;52.63;73251.94;10450742;28;20208;-66
2023/09/06 17:38:51;;;;;;;6.70;4.60;;;;;;;-145.68;54.22;73325.91;10456240;28;20722;-66
2023/09/06 17:43:51;;;;;;;6.55;4.20;;;;;;;-145.68;55.71;73355.88;10450664;28;20226;-66
2023/09/06 17:48:52;;;;;;;5.78;4.07;;;;;;;-145.68;56.84;73385.88;10449688;28;20220;-66
2023/09/06 17:53:53;;;;;;;11.23;4.60;;;;;;;-145.68;57.65;73411.84;10465349;28;20223;-66
2023/09/06 17:58:54;;;;;;;8.18;4.05;;;;;;;-145.68;58.82;73443.84;10463811;28;20196;-66
2023/09/06 18:03:57;;;;;;;6.63;4.55;;;;;;;-145.68;60.00;73487.81;10448654;28;20243;-66
2023/09/06 18:08:57;;;;;;;6.88;4.57;;;;;;;-145.68;60.97;73491.81;10445973;28;20633;-66
2023/09/06 18:13:57;;;;;;;8.60;4.82;;;;;;;-145.68;62.25;73525.78;10456079;28;20211;-66
2023/09/06 18:18:58;;;;;;;6.55;4.88;;;;;;;-145.68;63.86;73561.75;10448663;28;20330;-66
2023/09/06 18:24:03;;;;;;;6.90;5.25;;;;;;;-145.68;65.51;73597.75;10448234;28;20578;-65
2023/09/06 18:29:03;;;;;;;6.40;4.95;;;;;;;-145.68;66.70;73597.75;10447840;28;20218;-66
2023/09/06 18:34:06;;;;;;;12.23;5.32;;;;;;;-145.68;67.93;73631.72;10449412;28;20204;-66
2023/09/06 18:39:08;;;;;;;7.15;4.88;;;;;;;-145.68;69.38;73653.69;10447718;28;20279;-66
2023/09/06 18:44:09;;;;;;;7.10;5.18;;;;;;;-145.68;70.84;73691.69;10446456;28;20627;-66
2023/09/06 18:49:09;;;;;;;8.18;4.97;;;;;;;-145.68;72.79;73707.69;10453215;28;20218;-66
2023/09/06 18:54:09;;;;;;;7.53;5.28;;;;;;;-145.68;74.27;73723.66;10457017;28;20211;-66
2023/09/06 18:59:10;;;;;;;9.75;5.60;;;;;;;-145.68;76.01;73747.66;10445127;28;20187;-66
2023/09/06 19:04:10;;;;;;;12.50;5.82;;;;;;;-145.68;76.90;73759.66;10445043;28;20235;-66
2023/09/06 19:09:11;;;;;;;9.55;5.68;;;;;;;-145.68;77.66;73763.66;10448989;28;20235;-65
2023/09/06 19:14:11;;;;;;;6.95;5.18;;;;;;;-145.68;78.61;73789.63;10462374;28;20278;-65
2023/09/06 19:19:11;;;;;;;8.07;5.78;;;;;;;-145.68;80.89;73795.63;10446489;28;20278;-65
2023/09/06 19:24:12;;;;;;;12.57;5.75;;;;;;;-145.68;80.97;73801.63;10446886;28;20710;-65
2023/09/06 19:29:12;;;;;;;8.23;5.30;;;;;;;-145.68;80.87;73803.63;10449916;28;20272;-65
2023/09/06 19:34:13;;;;;;;11.52;5.85;;;;;;;-145.68;83.23;73831.59;10455138;28;20208;-65
2023/09/06 19:39:13;;;;;;;8.38;6.05;;;;;;;-145.68;85.03;73855.59;10448983;28;20207;-65
2023/09/06 19:44:13;;;;;;;12.82;5.63;;;;;;;-145.68;85.57;73873.59;10450586;28;20254;-65
2023/09/06 19:49:14;;;;;;;7.82;5.55;;;;;;;-145.68;86.13;73875.59;10461373;28;20226;-65
2023/09/06 19:54:17;;;;;;;8.18;5.43;;;;;;;-145.68;86.66;73883.59;10468114;28;20209;-66
2023/09/06 19:59:17;;;;;;;8.77;5.40;;;;;;;-145.68;86.85;73885.56;10448204;28;20188;-65
2023/09/06 20:04:19;;;;;;;11.48;5.80;;;;;;;-145.68;86.71;73901.56;10449896;28;20235;-66
2023/09/06 20:09:20;;;;;;;13.27;5.72;;;;;;;-145.68;87.41;73919.56;10449640;28;20224;-65
2023/09/06 20:14:23;;;;;;;9.85;6.65;;;;;;;-145.68;88.24;73927.56;10450149;28;20214;-65
2023/09/06 20:19:23;;;;;;;7.55;5.70;;;;;;;-145.68;88.48;73943.56;10449006;28;20184;-65
2023/09/06 20:24:24;;;;;;;10.55;6.30;;;;;;;-145.68;89.48;73949.56;10450980;28;20215;-65
2023/09/06 20:29:27;;;;;;;8.27;5.40;;;;;;;-145.68;90.13;73961.53;10450988;28;20235;-65
2023/09/06 20:34:27;;;;;;;7.43;5.20;;;;;;;-145.68;90.62;73961.53;10460448;28;20214;-65
2023/09/06 20:39:27;;;;;;;8.82;6.05;;;;;;;-145.68;91.24;73979.53;10495653;28;20202;-65
2023/09/06 20:44:28;;;;;;;7.40;5.07;;;;;;;-145.68;91.98;73985.53;10495381;28;20230;-66
2023/09/06 20:49:30;;;;;;;9.25;5.22;;;;;;;-145.68;92.15;73991.53;10495380;28;20219;-66
2023/09/06 20:54:30;;;;;;;7.85;5.38;;;;;;;-145.68;92.76;74001.53;10494768;28;20260;-65
2023/09/06 20:59:30;;;;;;;7.05;5.53;;;;;;;-145.68;94.00;74019.50;10495287;28;20187;-65
2023/09/06 21:04:31;;;;;;;8.88;5.80;;;;;;;-145.68;94.93;74019.50;10463656;22;20727;-71
2023/09/06 21:09:31;;;;;;;6.35;5.22;;;;;;;-145.68;94.93;74031.50;10372551;28;20299;-70
2023/09/06 21:14:32;;;;;;;8.35;5.82;;;;;;;-145.68;96.06;74039.50;10392018;28;20226;-70
2023/09/06 21:19:32;;;;;;;7.55;5.20;;;;;;;-145.68;96.38;74047.50;10411651;28;20321;-70
2023/09/06 21:24:32;;;;;;;9.25;5.55;;;;;;;-145.68;97.62;74055.50;10411306;28;20226;-70
2023/09/06 21:29:33;;;;;;;8.95;5.72;;;;;;;-145.68;99.37;74069.50;10411027;28;20212;-70
2023/09/06 21:34:33;;;;;;;7.45;5.93;;;;;;;-145.68;100.00;74083.47;10411002;28;20212;-70
2023/09/06 21:39:34;;;;;;;6.93;5.72;;;;;;;-145.68;100.00;74091.47;10410830;28;20242;-71
2023/09/06 21:44:37;;;;;;;7.72;5.85;;;;;;;-145.68;100.00;74119.47;10410555;28;20280;-70
2023/09/06 21:49:37;;;;;;;8.57;6.03;;;;;;;-145.68;100.00;74131.47;10410672;28;20212;-70
2023/09/06 21:54:38;;;;;;;10.10;6.40;;;;;;;-145.68;100.00;74155.44;10410087;28;20212;-70
2023/09/06 21:59:38;;;;;;;8.75;5.72;;;;;;;-145.68;100.00;74157.44;10410217;28;20196;-70
2023/09/06 22:04:38;;;;;;;10.23;6.20;;;;;;;-145.68;100.00;74155.44;10409635;28;20232;-70
2023/09/06 22:09:58;;;;;;;7.47;6.30;;;;;;;-145.68;100.00;74175.44;10409573;28;20232;-70
2023/09/06 22:15:16;;;;;;;7.13;6.40;;;;;;;-145.68;100.00;74175.44;10407546;28;20212;-71
2023/09/06 22:20:18;;;;;;;7.85;5.75;;;;;;;-145.68;100.00;74181.44;10409402;28;20185;-70
2023/09/06 22:25:19;;;;;;;10.77;6.45;;;;;;;-145.68;100.00;74183.44;10409077;28;20266;-70
2023/09/06 22:30:19;;;;;;;13.73;6.70;;;;;;;-145.68;100.00;74185.44;10408830;28;20632;-71
2023/09/06 22:35:20;;;;;;;8.70;6.18;;;;;;;-145.68;100.00;74179.44;10407653;28;20204;-71
2023/09/06 22:40:21;;;;;;;10.68;6.32;;;;;;;-145.68;100.00;74201.44;10408302;28;20189;-70
2023/09/06 22:45:21;;;;;;;10.25;7.03;;;;;;;-145.68;100.00;74223.44;10408496;28;20679;-70
2023/09/06 22:50:21;;;;;;;9.90;6.15;;;;;;;-145.68;100.00;74243.41;10408178;28;20213;-70